createdAt,value
2018-12-19T00:00:11.343Z,7.9
2018-12-19T00:01:12.705Z,7.9
2018-12-19T00:02:14.251Z,7.9
2018-12-19T00:03:15.777Z,7.9
2018-12-19T00:04:17.291Z,7.9
2018-12-19T00:05:18.665Z,7.9
2018-12-19T00:06:20.185Z,7.9
2018-12-19T00:07:21.262Z,7.2
2018-12-19T00:08:22.639Z,7.3
2018-12-19T00:09:23.875Z,7.4
2018-12-19T00:10:25.270Z,7.4
2018-12-19T00:11:26.794Z,7.5
2018-12-19T00:12:28.174Z,7.6
2018-12-19T00:13:29.557Z,7.6
2018-12-19T00:14:30.922Z,7.7
2018-12-19T00:15:31.981Z,7.7
2018-12-19T00:16:33.364Z,7.7
2018-12-19T00:17:34.742Z,7.8
2018-12-19T00:18:36.116Z,7.8
2018-12-19T00:19:37.499Z,7.8
2018-12-19T00:20:39.024Z,7.8
2018-12-19T00:21:40.559Z,7.8
2018-12-19T00:22:41.763Z,7.8
2018-12-19T00:23:43.131Z,7.9
2018-12-19T00:24:44.672Z,7.9
2018-12-19T00:25:46.032Z,7.9
2018-12-19T00:26:47.402Z,7.9
2018-12-19T00:27:49.011Z,7.9
2018-12-19T00:28:50.223Z,7.8
2018-12-19T00:29:51.750Z,7.8
2018-12-19T00:30:53.142Z,7.9
2018-12-19T00:31:54.671Z,7.9
2018-12-19T00:32:56.205Z,7.9
2018-12-19T00:33:57.739Z,7.9
2018-12-19T00:34:58.953Z,7.9
2018-12-19T00:36:00.338Z,7.9
2018-12-19T00:37:01.854Z,7.9
2018-12-19T00:38:03.219Z,7.9
2018-12-19T00:39:10.950Z,7.9
2018-12-19T00:40:12.326Z,7.9
2018-12-19T00:41:13.867Z,7.9
2018-12-19T00:42:15.381Z,7.8
2018-12-19T00:43:16.908Z,7.8
2018-12-19T00:44:18.281Z,7.8
2018-12-19T00:45:19.495Z,7.8
2018-12-19T00:46:20.718Z,7.8
2018-12-19T00:47:22.260Z,7.8
2018-12-19T00:48:23.773Z,7.9
2018-12-19T00:49:25.291Z,7.9
2018-12-19T00:50:26.661Z,7.9
2018-12-19T00:51:27.723Z,7.9
2018-12-19T00:52:28.945Z,7.8
2018-12-19T00:53:30.488Z,7.8
2018-12-19T00:54:32.036Z,7.8
2018-12-19T00:55:33.557Z,7.8
2018-12-19T00:56:34.944Z,7.8
2018-12-19T00:57:36.322Z,7.8
2018-12-19T00:58:37.853Z,7.8
2018-12-19T00:59:39.219Z,7.8
2018-12-19T01:00:40.587Z,7.8
2018-12-19T01:01:42.161Z,7.9
2018-12-19T01:02:43.549Z,7.2
2018-12-19T01:03:44.943Z,7.2
2018-12-19T01:04:49.465Z,7.3
2018-12-19T01:05:51.028Z,7.3
2018-12-19T01:06:52.416Z,7.3
2018-12-19T01:07:53.941Z,7.3
2018-12-19T01:08:55.483Z,7.4
2018-12-19T01:09:56.845Z,7.4
2018-12-19T01:10:58.371Z,7.4
2018-12-19T01:11:59.731Z,7.4
2018-12-19T01:13:01.261Z,7.4
2018-12-19T01:14:02.634Z,7.5
2018-12-19T01:15:04.178Z,7.5
2018-12-19T01:16:05.543Z,7.5
2018-12-19T01:17:06.891Z,7.5
2018-12-19T01:18:08.423Z,7.5
2018-12-19T01:19:09.627Z,7.5
2018-12-19T01:20:10.841Z,7.6
2018-12-19T01:21:12.209Z,7.5
2018-12-19T01:22:13.649Z,7.5
2018-12-19T01:23:15.028Z,7.6
2018-12-19T01:24:16.241Z,7.6
2018-12-19T01:25:17.604Z,7.7
2018-12-19T01:26:18.962Z,7.7
2018-12-19T01:27:20.483Z,7.7
2018-12-19T01:28:22.013Z,7.7
2018-12-19T01:29:23.390Z,7.7
2018-12-19T01:30:24.917Z,7.7
2018-12-19T01:31:26.313Z,7.7
2018-12-19T01:32:27.386Z,7.7
2018-12-19T01:33:28.920Z,7.7
2018-12-19T01:34:30.491Z,7.8
2018-12-19T01:35:32.011Z,7.7
2018-12-19T01:36:33.224Z,7.7
2018-12-19T01:37:34.824Z,7.8
2018-12-19T01:38:36.391Z,7.8
2018-12-19T01:39:37.902Z,7.8
2018-12-19T01:40:39.423Z,7.8
2018-12-19T01:41:40.942Z,7.8
2018-12-19T01:42:42.302Z,7.8
2018-12-19T01:43:43.665Z,7.8
2018-12-19T01:44:45.185Z,7.8
2018-12-19T01:45:46.713Z,7.8
2018-12-19T01:46:48.232Z,7.9
2018-12-19T01:47:49.661Z,7.9
2018-12-19T01:48:51.211Z,7.9
2018-12-19T01:49:52.568Z,7.9
2018-12-19T01:50:54.107Z,7.9
2018-12-19T01:51:55.619Z,7.9
2018-12-19T01:52:57.175Z,7.9
2018-12-19T01:53:58.702Z,7.9
2018-12-19T01:55:00.071Z,7.8
2018-12-19T01:56:01.607Z,7.8
2018-12-19T01:57:02.989Z,7.8
2018-12-19T01:58:04.511Z,7.8
2018-12-19T01:59:05.876Z,7.7
2018-12-19T02:00:07.481Z,7.7
2018-12-19T02:01:08.940Z,7.7
2018-12-19T02:02:10.300Z,7.7
2018-12-19T02:03:11.687Z,7.7
2018-12-19T02:04:13.212Z,7.7
2018-12-19T02:05:14.742Z,7.6
2018-12-19T02:06:16.167Z,7.6
2018-12-19T02:07:17.391Z,7.5
2018-12-19T02:08:18.921Z,7.4
2018-12-19T02:09:20.441Z,7.3
2018-12-19T02:10:21.821Z,7.2
2018-12-19T02:11:23.338Z,7.1
2018-12-19T02:12:24.722Z,7.1
2018-12-19T02:13:26.261Z,7.1
2018-12-19T02:14:27.626Z,7.1
2018-12-19T02:15:29.163Z,7.1
2018-12-19T02:16:30.377Z,7.1
2018-12-19T02:17:31.753Z,7.1
2018-12-19T02:18:33.279Z,7.1
2018-12-19T02:19:34.633Z,7.1
2018-12-19T02:20:36.147Z,7.1
2018-12-19T02:21:37.673Z,7.1
2018-12-19T02:22:39.183Z,7.1
2018-12-19T02:23:40.715Z,7.1
2018-12-19T02:24:42.227Z,7.1
2018-12-19T02:25:43.739Z,7.1
2018-12-19T02:26:45.261Z,7.1
2018-12-19T02:27:46.511Z,7.1
2018-12-19T02:28:48.028Z,7.1
2018-12-19T02:29:49.233Z,7.1
2018-12-19T02:30:50.772Z,7.1
2018-12-19T02:31:52.305Z,7.1
2018-12-19T02:32:53.681Z,7.1
2018-12-19T02:33:55.209Z,7.1
2018-12-19T02:34:56.571Z,7.1
2018-12-19T02:35:57.945Z,7.1
2018-12-19T02:36:59.310Z,7.1
2018-12-19T02:38:00.671Z,7.1
2018-12-19T02:39:02.191Z,7.1
2018-12-19T02:40:03.748Z,7.1
2018-12-19T02:41:05.299Z,7.1
2018-12-19T02:42:06.852Z,7.1
2018-12-19T02:43:08.259Z,7.1
2018-12-19T02:44:09.772Z,7.1
2018-12-19T02:45:10.988Z,7.1
2018-12-19T02:46:12.510Z,7.2
2018-12-19T02:47:14.034Z,7.2
2018-12-19T02:48:15.281Z,7.2
2018-12-19T02:49:16.811Z,7.2
2018-12-19T02:50:18.180Z,7.2
2018-12-19T02:51:19.695Z,7.2
2018-12-19T02:52:20.971Z,7.2
2018-12-19T02:53:22.324Z,7.2
2018-12-19T02:54:23.862Z,7.2
2018-12-19T02:55:25.423Z,7.2
2018-12-19T02:56:26.808Z,7.2
2018-12-19T02:57:28.371Z,7.2
2018-12-19T02:58:29.920Z,7.2
2018-12-19T02:59:31.471Z,7.2
2018-12-19T03:00:33.000Z,7.2
2018-12-19T03:01:34.531Z,7.2
2018-12-19T03:02:36.068Z,7.2
2018-12-19T03:03:37.451Z,7.2
2018-12-19T03:04:38.979Z,7.2
2018-12-19T03:05:40.351Z,7.2
2018-12-19T03:06:41.570Z,7.2
2018-12-19T03:07:43.115Z,7.3
2018-12-19T03:08:44.653Z,7.3
2018-12-19T03:09:46.026Z,7.3
2018-12-19T03:10:47.411Z,7.4
2018-12-19T03:11:48.961Z,7.4
2018-12-19T03:12:50.349Z,7.5
2018-12-19T03:13:51.877Z,7.6
2018-12-19T03:14:53.412Z,7.6
2018-12-19T03:15:54.647Z,7.7
2018-12-19T03:16:55.874Z,7.7
2018-12-19T03:17:57.404Z,7.8
2018-12-19T03:18:58.623Z,7.8
2018-12-19T03:20:00.171Z,7.8
2018-12-19T03:21:01.691Z,7.8
2018-12-19T03:22:03.220Z,7.8
2018-12-19T03:23:04.736Z,7.8
2018-12-19T03:24:06.110Z,7.9
2018-12-19T03:25:07.482Z,7.9
2018-12-19T03:26:09.021Z,7.9
2018-12-19T03:27:10.419Z,7.9
2018-12-19T03:28:11.958Z,7.9
2018-12-19T03:29:13.186Z,7.9
2018-12-19T03:30:14.570Z,7.9
2018-12-19T03:31:16.162Z,7.9
2018-12-19T03:32:17.585Z,7.9
2018-12-19T03:33:19.123Z,7.8
2018-12-19T03:34:20.653Z,7.8
2018-12-19T03:35:21.880Z,7.8
2018-12-19T03:36:23.242Z,7.8
2018-12-19T03:37:24.765Z,7.8
2018-12-19T03:38:26.292Z,7.8
2018-12-19T03:39:27.709Z,7.8
2018-12-19T03:40:29.253Z,7.8
2018-12-19T03:41:30.869Z,7.8
2018-12-19T03:42:32.419Z,7.8
2018-12-19T03:43:33.966Z,7.8
2018-12-19T03:44:35.501Z,7.9
2018-12-19T03:45:36.707Z,7.9
2018-12-19T03:46:38.249Z,7.9
2018-12-19T03:47:39.615Z,7.9
2018-12-19T03:48:41.151Z,7.9
2018-12-19T03:49:42.543Z,7.9
2018-12-19T03:50:44.065Z,7.8
2018-12-19T03:51:45.431Z,7.9
2018-12-19T03:52:46.975Z,7.9
2018-12-19T03:53:48.511Z,7.9
2018-12-19T03:54:50.060Z,7.9
2018-12-19T03:55:51.423Z,7.9
2018-12-19T03:56:52.801Z,7.9
2018-12-19T03:57:54.339Z,7.8
2018-12-19T03:58:55.571Z,7.8
2018-12-19T03:59:57.182Z,7.8
2018-12-19T04:00:58.741Z,7.8
2018-12-19T04:02:00.282Z,7.8
2018-12-19T04:03:01.489Z,7.8
2018-12-19T04:04:03.030Z,7.8
2018-12-19T04:05:04.562Z,7.8
2018-12-19T04:06:06.101Z,7.8
2018-12-19T04:07:07.477Z,7.7
2018-12-19T04:08:09.015Z,7.6
2018-12-19T04:09:10.224Z,7.5
2018-12-19T04:10:11.600Z,7.4
2018-12-19T04:11:13.154Z,7.3
2018-12-19T04:12:14.683Z,7.2
2018-12-19T04:13:16.452Z,7.2
2018-12-19T04:14:17.986Z,7.2
2018-12-19T04:15:19.514Z,7.2
2018-12-19T04:16:20.890Z,7.2
2018-12-19T04:17:22.459Z,7.2
2018-12-19T04:18:23.983Z,7.2
2018-12-19T04:19:25.349Z,7.2
2018-12-19T04:20:26.874Z,7.2
2018-12-19T04:21:28.262Z,7.2
2018-12-19T04:22:29.629Z,7.2
2018-12-19T04:23:31.161Z,7.2
2018-12-19T04:24:32.702Z,7.2
2018-12-19T04:25:34.236Z,7.2
2018-12-19T04:26:35.635Z,7.2
2018-12-19T04:27:37.012Z,7.2
2018-12-19T04:28:38.538Z,7.2
2018-12-19T04:29:40.087Z,7.2
2018-12-19T04:30:41.471Z,7.3
2018-12-19T04:31:43.004Z,7.3
2018-12-19T04:32:44.393Z,7.4
2018-12-19T04:33:45.912Z,7.5
2018-12-19T04:34:47.279Z,7.6
2018-12-19T04:35:49.038Z,7.6
2018-12-19T04:36:50.561Z,7.7
2018-12-19T04:37:51.893Z,7.8
2018-12-19T04:38:53.574Z,7.8
2018-12-19T04:39:55.213Z,7.8
2018-12-19T04:40:56.585Z,7.8
2018-12-19T04:41:57.963Z,7.8
2018-12-19T04:42:59.373Z,7.8
2018-12-19T04:44:00.752Z,7.8
2018-12-19T04:45:02.298Z,7.8
2018-12-19T04:46:03.853Z,7.8
2018-12-19T04:47:05.389Z,7.8
2018-12-19T04:48:06.993Z,7.8
2018-12-19T04:49:08.373Z,7.8
2018-12-19T04:50:09.779Z,7.8
2018-12-19T04:51:11.323Z,7.8
2018-12-19T04:52:12.711Z,7.9
2018-12-19T04:53:16.125Z,7.9
2018-12-19T04:54:17.521Z,7.9
2018-12-19T04:55:19.100Z,7.9
2018-12-19T04:56:20.653Z,7.9
2018-12-19T04:57:21.934Z,7.9
2018-12-19T04:58:23.192Z,7.9
2018-12-19T04:59:24.745Z,7.9
2018-12-19T05:00:26.157Z,7.9
2018-12-19T05:01:27.707Z,7.2
2018-12-19T05:02:29.104Z,7.3
2018-12-19T05:03:30.643Z,7.4
2018-12-19T05:04:32.201Z,7.4
2018-12-19T05:05:33.753Z,7.5
2018-12-19T05:06:35.275Z,7.5
2018-12-19T05:07:36.802Z,7.5
2018-12-19T05:08:38.336Z,7.5
2018-12-19T05:09:39.878Z,7.6
2018-12-19T05:10:41.405Z,7.5
2018-12-19T05:11:42.475Z,7.6
2018-12-19T05:12:43.863Z,7.6
2018-12-19T05:13:45.243Z,7.6
2018-12-19T05:14:46.769Z,7.7
2018-12-19T05:15:48.136Z,7.7
2018-12-19T05:16:49.655Z,7.7
2018-12-19T05:17:51.040Z,7.8
2018-12-19T05:18:52.629Z,7.8
2018-12-19T05:19:54.155Z,7.8
2018-12-19T05:20:55.545Z,7.8
2018-12-19T05:21:56.599Z,7.8
2018-12-19T05:22:58.122Z,7.8
2018-12-19T05:23:59.649Z,7.8
2018-12-19T05:25:01.194Z,7.8
2018-12-19T05:26:02.582Z,7.8
2018-12-19T05:27:04.116Z,7.8
2018-12-19T05:28:05.638Z,7.8
2018-12-19T05:29:07.002Z,7.8
2018-12-19T05:30:08.522Z,7.8
2018-12-19T05:31:09.899Z,7.8
2018-12-19T05:32:10.965Z,7.7
2018-12-19T05:33:12.483Z,7.7
2018-12-19T05:34:13.870Z,7.7
2018-12-19T05:35:15.239Z,7.7
2018-12-19T05:36:16.775Z,7.6
2018-12-19T05:37:18.209Z,7.6
2018-12-19T05:38:19.597Z,7.6
2018-12-19T05:39:21.146Z,7.6
2018-12-19T05:40:22.513Z,7.6
2018-12-19T05:41:23.752Z,7.6
2018-12-19T05:42:25.293Z,7.5
2018-12-19T05:43:26.351Z,7.5
2018-12-19T05:44:27.565Z,7.5
2018-12-19T05:45:29.083Z,7.5
2018-12-19T05:46:30.614Z,7.4
2018-12-19T05:47:32.143Z,7.4
2018-12-19T05:48:33.513Z,7.3
2018-12-19T05:49:34.934Z,7.2
2018-12-19T05:50:36.465Z,7.2
2018-12-19T05:51:37.833Z,7.2
2018-12-19T05:52:39.381Z,7.2
2018-12-19T05:53:40.808Z,7.2
2018-12-19T05:54:42.193Z,7.1
2018-12-19T05:55:43.589Z,7.2
2018-12-19T05:56:44.976Z,7.2
2018-12-19T05:57:46.364Z,7.2
2018-12-19T05:58:47.749Z,7.2
2018-12-19T05:59:48.827Z,7.2
2018-12-19T06:00:50.366Z,7.1
2018-12-19T06:01:51.723Z,7.2
2018-12-19T06:02:53.117Z,7.2
2018-12-19T06:03:54.658Z,7.2
2018-12-19T06:04:56.207Z,7.2
2018-12-19T06:05:57.432Z,7.2
2018-12-19T06:06:59.177Z,7.2
2018-12-19T06:08:00.239Z,7.2
2018-12-19T06:09:01.631Z,7.2
2018-12-19T06:10:03.151Z,7.2
2018-12-19T06:11:04.681Z,7.2
2018-12-19T06:12:06.063Z,7.2
2018-12-19T06:13:07.577Z,7.2
2018-12-19T06:14:09.323Z,7.2
2018-12-19T06:15:10.724Z,7.2
2018-12-19T06:16:12.093Z,7.3
2018-12-19T06:17:13.476Z,7.3
2018-12-19T06:18:14.860Z,7.3
2018-12-19T06:19:16.383Z,7.4
2018-12-19T06:20:17.903Z,7.4
2018-12-19T06:21:19.481Z,7.5
2018-12-19T06:22:20.857Z,7.5
2018-12-19T06:23:21.764Z,7.6
2018-12-19T06:24:23.297Z,7.6
2018-12-19T06:25:24.678Z,7.7
2018-12-19T06:26:55.459Z,7.7
2018-12-19T06:27:57.006Z,7.8
2018-12-19T06:28:58.629Z,7.8
2018-12-19T06:30:00.255Z,7.8
2018-12-19T06:31:01.809Z,7.9
2018-12-19T06:32:03.041Z,7.9
2018-12-19T06:33:04.413Z,7.9
2018-12-19T06:34:05.933Z,7.9
2018-12-19T06:35:07.470Z,7.9
2018-12-19T06:36:08.857Z,7.9
2018-12-19T06:37:10.246Z,7.9
2018-12-19T06:38:11.826Z,7.9
2018-12-19T06:39:13.381Z,7.9
2018-12-19T06:40:14.924Z,7.9
2018-12-19T06:41:16.461Z,7.9
2018-12-19T06:42:17.987Z,7.9
2018-12-19T06:43:19.353Z,7.9
2018-12-19T06:44:20.435Z,7.9
2018-12-19T06:45:22.041Z,7.9
2018-12-19T06:46:23.431Z,7.9
2018-12-19T06:47:24.801Z,7.9
2018-12-19T06:48:26.186Z,7.9
2018-12-19T06:49:27.412Z,7.9
2018-12-19T06:50:28.967Z,7.5
2018-12-19T06:51:30.519Z,7.6
2018-12-19T06:52:31.588Z,7.7
2018-12-19T06:53:33.141Z,7.8
2018-12-19T06:54:34.712Z,7.9
2018-12-19T06:55:36.094Z,7.8
2018-12-19T06:56:37.473Z,7.8
2018-12-19T06:57:39.005Z,7.7
2018-12-19T06:58:40.531Z,7.7
2018-12-19T06:59:41.923Z,7.6
2018-12-19T07:00:43.454Z,7.5
2018-12-19T07:01:44.984Z,7.4
2018-12-19T07:02:46.379Z,7.3
2018-12-19T07:03:47.773Z,7.2
2018-12-19T07:04:49.322Z,7.1
2018-12-19T07:05:50.545Z,7.2
2018-12-19T07:06:52.073Z,7.2
2018-12-19T07:07:53.624Z,7.2
2018-12-19T07:08:55.156Z,7.2
2018-12-19T07:09:56.700Z,7.2
2018-12-19T07:10:58.234Z,7.2
2018-12-19T07:11:59.637Z,7.2
2018-12-19T07:13:01.181Z,7.2
2018-12-19T07:14:02.729Z,7.2
2018-12-19T07:15:04.105Z,7.2
2018-12-19T07:16:05.625Z,7.2
2018-12-19T07:17:07.157Z,7.2
2018-12-19T07:18:08.533Z,7.2
2018-12-19T07:19:10.073Z,7.2
2018-12-19T07:20:11.451Z,7.2
2018-12-19T07:21:12.973Z,7.2
2018-12-19T07:22:14.527Z,7.2
2018-12-19T07:23:15.907Z,7.2
2018-12-19T07:24:17.445Z,7.2
2018-12-19T07:25:18.981Z,7.2
2018-12-19T07:26:20.220Z,7.2
2018-12-19T07:27:21.758Z,7.2
2018-12-19T07:28:23.301Z,7.2
2018-12-19T07:29:24.680Z,7.2
2018-12-19T07:30:26.226Z,7.3
2018-12-19T07:31:27.757Z,7.4
2018-12-19T07:32:29.301Z,7.4
2018-12-19T07:33:30.842Z,7.5
2018-12-19T07:34:32.252Z,7.6
2018-12-19T07:35:33.485Z,7.7
2018-12-19T07:36:35.025Z,7.8
2018-12-19T07:37:36.562Z,7.9
2018-12-19T07:38:38.089Z,7.9
2018-12-19T07:39:39.491Z,7.9
2018-12-19T07:40:47.189Z,7.9
2018-12-19T07:41:48.572Z,7.9
2018-12-19T07:42:50.112Z,7.9
2018-12-19T07:43:51.483Z,7.9
2018-12-19T07:44:52.719Z,7.9
2018-12-19T07:45:54.259Z,7.9
2018-12-19T07:46:55.795Z,7.9
2018-12-19T07:47:57.177Z,7.9
2018-12-19T07:48:58.558Z,7.9
2018-12-19T07:50:00.104Z,7.9
2018-12-19T07:51:01.501Z,7.9
2018-12-19T07:52:03.037Z,7.9
2018-12-19T07:53:04.573Z,7.2
2018-12-19T07:54:05.991Z,7.3
2018-12-19T07:55:07.374Z,7.3
2018-12-19T07:56:08.981Z,7.3
2018-12-19T07:57:10.361Z,7.4
2018-12-19T07:58:11.903Z,7.4
2018-12-19T07:59:13.308Z,7.5
2018-12-19T08:00:14.822Z,7.5
2018-12-19T08:01:18.069Z,7.5
2018-12-19T08:02:19.435Z,7.6
2018-12-19T08:03:20.864Z,7.6
2018-12-19T08:04:22.383Z,7.6
2018-12-19T08:05:27.775Z,7.7
2018-12-19T08:06:29.399Z,7.7
2018-12-19T08:07:30.667Z,7.7
2018-12-19T08:08:32.055Z,7.7
2018-12-19T08:09:33.422Z,7.8
2018-12-19T08:10:34.977Z,7.8
2018-12-19T08:11:36.371Z,7.8
2018-12-19T08:12:37.778Z,7.8
2018-12-19T08:13:39.155Z,7.8
2018-12-19T08:14:40.704Z,7.8
2018-12-19T08:15:42.078Z,7.8
2018-12-19T08:16:43.616Z,7.8
2018-12-19T08:17:45.003Z,7.8
2018-12-19T08:18:46.405Z,7.8
2018-12-19T08:19:47.937Z,7.8
2018-12-19T08:20:49.528Z,7.8
2018-12-19T08:21:50.924Z,7.8
2018-12-19T08:22:52.474Z,7.8
2018-12-19T08:23:54.021Z,7.2
2018-12-19T08:24:55.553Z,7.2
2018-12-19T08:25:57.094Z,7.3
2018-12-19T08:26:58.627Z,7.3
2018-12-19T08:28:00.001Z,7.3
2018-12-19T08:29:01.531Z,7.3
2018-12-19T08:30:02.897Z,7.3
2018-12-19T08:31:04.291Z,7.3
2018-12-19T08:32:05.886Z,7.2
2018-12-19T08:33:07.431Z,7.2
2018-12-19T08:34:08.652Z,7.2
2018-12-19T08:35:10.179Z,7.2
2018-12-19T08:36:11.695Z,7.2
2018-12-19T08:37:12.752Z,7.2
2018-12-19T08:38:14.275Z,7.2
2018-12-19T08:39:15.633Z,7.2
2018-12-19T08:40:17.001Z,7.2
2018-12-19T08:41:18.542Z,7.2
2018-12-19T08:42:20.106Z,7.2
2018-12-19T08:43:21.672Z,7.2
2018-12-19T08:44:24.810Z,7.2
2018-12-19T08:45:26.352Z,7.2
2018-12-19T08:46:27.732Z,7.2
2018-12-19T08:47:29.110Z,7.2
2018-12-19T08:48:30.632Z,7.2
2018-12-19T08:49:32.172Z,7.2
2018-12-19T08:50:33.712Z,7.2
2018-12-19T08:51:35.242Z,7.2
2018-12-19T08:52:36.671Z,7.2
2018-12-19T08:53:38.197Z,7.2
2018-12-19T08:54:39.575Z,7.2
2018-12-19T08:55:40.953Z,7.2
2018-12-19T08:56:42.511Z,7.2
2018-12-19T08:57:43.725Z,7.2
2018-12-19T08:58:45.257Z,7.3
2018-12-19T08:59:46.815Z,7.3
2018-12-19T09:00:48.193Z,7.4
2018-12-19T09:01:49.550Z,7.4
2018-12-19T09:02:51.090Z,7.5
2018-12-19T09:03:52.461Z,7.6
2018-12-19T09:04:53.845Z,7.6
2018-12-19T09:05:55.213Z,7.7
2018-12-19T09:06:56.873Z,7.8
2018-12-19T09:07:58.444Z,7.8
2018-12-19T09:08:59.963Z,7.8
2018-12-19T09:10:01.339Z,7.8
2018-12-19T09:11:07.332Z,7.8
2018-12-19T09:12:08.727Z,7.8
2018-12-19T09:13:10.092Z,7.8
2018-12-19T09:14:11.482Z,7.9
2018-12-19T09:15:12.872Z,7.8
2018-12-19T09:16:14.246Z,7.8
2018-12-19T09:17:15.796Z,7.9
2018-12-19T09:18:17.164Z,7.9
2018-12-19T09:19:18.696Z,7.9
2018-12-19T09:20:20.232Z,7.9
2018-12-19T09:21:21.638Z,7.2
2018-12-19T09:22:23.005Z,7.9
2018-12-19T09:23:24.407Z,7.9
2018-12-19T09:24:25.941Z,7.9
2018-12-19T09:25:27.482Z,7.9
2018-12-19T09:26:28.712Z,7.9
2018-12-19T09:27:30.246Z,7.9
2018-12-19T09:28:31.464Z,7.9
2018-12-19T09:29:33.005Z,7.9
2018-12-19T09:30:34.739Z,7.9
2018-12-19T09:31:36.274Z,7.9
2018-12-19T09:32:37.505Z,7.9
2018-12-19T09:33:39.058Z,7.9
2018-12-19T09:34:40.443Z,7.9
2018-12-19T09:35:41.802Z,7.9
2018-12-19T09:36:43.334Z,7.9
2018-12-19T09:37:44.592Z,7.9
2018-12-19T09:38:45.830Z,7.9
2018-12-19T09:39:47.227Z,7.9
2018-12-19T09:40:48.454Z,7.9
2018-12-19T09:41:49.980Z,7.4
2018-12-19T09:42:51.380Z,7.7
2018-12-19T09:43:52.754Z,7.9
2018-12-19T09:44:54.291Z,7.9
2018-12-19T09:45:55.681Z,7.9
2018-12-19T09:46:57.059Z,7.9
2018-12-19T09:47:58.435Z,7.9
2018-12-19T09:48:59.975Z,7.9
2018-12-19T09:50:01.197Z,7.9
2018-12-19T09:51:02.739Z,7.9
2018-12-19T09:52:33.652Z,7.8
2018-12-19T09:53:35.216Z,7.9
2018-12-19T09:54:36.754Z,7.9
2018-12-19T09:55:38.131Z,7.9
2018-12-19T09:56:39.661Z,7.9
2018-12-19T09:57:41.042Z,7.9
2018-12-19T09:58:42.266Z,7.9
2018-12-19T09:59:43.668Z,7.9
2018-12-19T10:00:45.205Z,7.7
2018-12-19T10:01:46.765Z,7.8
2018-12-19T10:02:49.594Z,7.9
2018-12-19T10:03:50.993Z,7.4
2018-12-19T10:04:52.513Z,7.5
2018-12-19T10:05:54.055Z,7.7
2018-12-19T10:06:55.564Z,7.8
2018-12-19T10:08:10.503Z,7.8
2018-12-19T10:09:16.256Z,7.9
2018-12-19T10:10:17.810Z,7.9
2018-12-19T10:11:20.317Z,7.9
2018-12-19T10:12:21.701Z,7.8
2018-12-19T10:13:23.255Z,7.8
2018-12-19T10:14:24.803Z,7.8
2018-12-19T10:15:26.336Z,7.8
2018-12-19T10:16:27.892Z,7.8
2018-12-19T10:17:28.956Z,7.8
2018-12-19T10:18:30.495Z,7.8
2018-12-19T10:19:32.062Z,7.8
2018-12-19T10:20:33.455Z,7.8
2018-12-19T10:21:35.005Z,7.8
2018-12-19T10:22:36.409Z,7.8
2018-12-19T10:23:37.794Z,7.7
2018-12-19T10:24:39.189Z,7.7
2018-12-19T10:25:40.737Z,7.7
2018-12-19T10:26:42.265Z,7.7
2018-12-19T10:27:43.676Z,7.7
2018-12-19T10:28:45.248Z,7.7
2018-12-19T10:29:46.622Z,7.7
2018-12-19T10:30:48.163Z,7.8
2018-12-19T10:31:49.574Z,7.8
2018-12-19T10:32:51.112Z,7.9
2018-12-19T10:33:52.669Z,7.9
2018-12-19T10:34:54.226Z,7.9
2018-12-19T10:35:55.749Z,7.7
2018-12-19T10:36:57.141Z,7.8
2018-12-19T10:37:58.388Z,7.9
2018-12-19T10:39:00.120Z,7.9
2018-12-19T10:40:01.664Z,7.9
2018-12-19T10:41:03.197Z,7.9
2018-12-19T10:42:04.574Z,7.9
2018-12-19T10:43:06.110Z,7.9
2018-12-19T10:44:07.482Z,7.9
2018-12-19T10:45:08.556Z,7.9
2018-12-19T10:46:10.166Z,7.9
2018-12-19T10:47:11.518Z,7.9
2018-12-19T10:48:13.057Z,7.9
2018-12-19T10:49:14.272Z,7.9
2018-12-19T10:50:15.822Z,7.8
2018-12-19T10:51:17.181Z,7.8
2018-12-19T10:52:18.734Z,7.8
2018-12-19T10:53:20.112Z,7.8
2018-12-19T10:54:21.492Z,7.8
2018-12-19T10:55:22.722Z,7.8
2018-12-19T10:56:24.112Z,7.8
2018-12-19T10:57:25.682Z,7.8
2018-12-19T10:58:27.059Z,7.8
2018-12-19T10:59:28.605Z,7.8
2018-12-19T11:00:30.155Z,7.8
2018-12-19T11:01:31.549Z,7.8
2018-12-19T11:02:33.092Z,7.9
2018-12-19T11:03:34.353Z,7.9
2018-12-19T11:04:35.883Z,7.9
2018-12-19T11:05:37.287Z,7.9
2018-12-19T11:06:38.670Z,7.8
2018-12-19T11:07:40.060Z,7.8
2018-12-19T11:08:41.422Z,7.8
2018-12-19T11:09:42.816Z,7.8
2018-12-19T11:10:45.745Z,7.8
2018-12-19T11:11:47.173Z,7.8
2018-12-19T11:12:48.719Z,7.8
2018-12-19T11:13:50.276Z,7.8
2018-12-19T11:14:51.514Z,7.8
2018-12-19T11:15:53.089Z,7.8
2018-12-19T11:16:54.642Z,7.8
2018-12-19T11:17:56.032Z,7.8
2018-12-19T11:18:57.602Z,7.8
2018-12-19T11:19:59.163Z,7.8
2018-12-19T11:21:00.684Z,7.8
2018-12-19T11:22:02.250Z,7.8
2018-12-19T11:23:03.808Z,7.8
2018-12-19T11:24:05.202Z,7.8
2018-12-19T11:25:06.751Z,7.8
2018-12-19T11:26:07.981Z,7.8
2018-12-19T11:27:09.498Z,7.8
2018-12-19T11:28:11.044Z,7.9
2018-12-19T11:29:12.716Z,7.9
2018-12-19T11:30:14.092Z,7.9
2018-12-19T11:31:15.626Z,7.9
2018-12-19T11:32:17.162Z,7.9
2018-12-19T11:33:18.559Z,7.9
2018-12-19T11:34:19.952Z,7.9
2018-12-19T11:35:21.364Z,7.9
2018-12-19T11:36:22.906Z,7.9
2018-12-19T11:37:24.274Z,7.9
2018-12-19T11:38:25.517Z,7.9
2018-12-19T11:39:27.291Z,7.9
2018-12-19T11:40:28.866Z,7.9
2018-12-19T11:41:30.321Z,7.2
2018-12-19T11:42:31.912Z,7.3
2018-12-19T11:43:33.368Z,7.3
2018-12-19T11:44:34.793Z,7.4
2018-12-19T11:45:36.222Z,7.3
2018-12-19T11:46:37.611Z,7.3
2018-12-19T11:47:39.153Z,7.3
2018-12-19T11:48:40.696Z,7.3
2018-12-19T11:49:42.242Z,7.3
2018-12-19T11:50:43.649Z,7.2
2018-12-19T11:51:44.866Z,7.2
2018-12-19T11:52:46.172Z,7.2
2018-12-19T11:53:47.705Z,7.2
2018-12-19T11:54:49.263Z,7.2
2018-12-19T11:55:50.814Z,7.1
2018-12-19T11:56:52.441Z,7.2
2018-12-19T11:57:53.853Z,7.2
2018-12-19T11:58:55.464Z,7.2
2018-12-19T11:59:57.069Z,7.2
2018-12-19T12:00:58.483Z,7.2
2018-12-19T12:02:00.045Z,7.2
2018-12-19T12:03:01.587Z,7.2
2018-12-19T12:04:03.150Z,7.2
2018-12-19T12:05:04.868Z,7.2
2018-12-19T12:06:06.444Z,7.2
2018-12-19T12:07:08.073Z,7.3
2018-12-19T12:08:09.602Z,7.3
2018-12-19T12:09:11.174Z,7.3
2018-12-19T12:10:12.589Z,7.4
2018-12-19T12:11:14.148Z,7.4
2018-12-19T12:12:15.689Z,7.5
2018-12-19T12:13:17.248Z,7.5
2018-12-19T12:14:18.783Z,7.6
2018-12-19T12:15:20.328Z,7.6
2018-12-19T12:16:21.854Z,7.6
2018-12-19T12:17:23.227Z,7.6
2018-12-19T12:18:24.631Z,7.7
2018-12-19T12:19:26.212Z,7.7
2018-12-19T12:20:27.624Z,7.7
2018-12-19T12:21:29.011Z,7.7
2018-12-19T12:22:30.392Z,7.7
2018-12-19T12:23:31.781Z,7.7
2018-12-19T12:24:33.326Z,7.7
2018-12-19T12:25:34.880Z,7.7
2018-12-19T12:26:36.416Z,7.7
2018-12-19T12:27:37.967Z,7.7
2018-12-19T12:28:39.523Z,7.7
2018-12-19T12:29:41.059Z,7.8
2018-12-19T12:30:42.478Z,7.8
2018-12-19T12:31:44.005Z,7.8
2018-12-19T12:32:45.535Z,7.8
2018-12-19T12:33:46.923Z,7.8
2018-12-19T12:34:48.314Z,7.8
2018-12-19T12:35:49.693Z,7.8
2018-12-19T12:36:51.239Z,7.8
2018-12-19T12:37:52.776Z,7.8
2018-12-19T12:38:54.184Z,7.8
2018-12-19T12:39:55.406Z,7.8
2018-12-19T12:40:56.943Z,7.8
2018-12-19T12:41:58.490Z,7.8
2018-12-19T12:43:00.022Z,7.8
2018-12-19T12:44:01.247Z,7.8
2018-12-19T12:45:02.910Z,7.8
2018-12-19T12:46:04.300Z,7.8
2018-12-19T12:47:05.845Z,7.8
2018-12-19T12:48:07.259Z,7.8
2018-12-19T12:49:08.842Z,7.8
2018-12-19T12:50:10.383Z,7.8
2018-12-19T12:51:11.784Z,7.8
2018-12-19T12:52:13.354Z,7.8
2018-12-19T12:53:16.444Z,7.8
2018-12-19T12:54:17.988Z,7.8
2018-12-19T12:55:19.231Z,7.8
2018-12-19T12:56:20.308Z,7.8
2018-12-19T12:57:21.773Z,7.8
2018-12-19T12:58:23.314Z,7.8
2018-12-19T12:59:24.885Z,7.8
2018-12-19T13:00:26.472Z,7.8
2018-12-19T13:01:27.861Z,7.8
2018-12-19T13:02:29.445Z,7.8
2018-12-19T13:03:31.001Z,7.9
2018-12-19T13:04:32.566Z,7.6
2018-12-19T13:05:34.004Z,7.6
2018-12-19T13:06:35.398Z,7.7
2018-12-19T13:07:36.953Z,7.7
2018-12-19T13:08:38.497Z,7.7
2018-12-19T13:09:39.889Z,7.7
2018-12-19T13:10:41.423Z,7.7
2018-12-19T13:11:42.643Z,7.6
2018-12-19T13:12:44.122Z,7.6
2018-12-19T13:13:45.668Z,7.5
2018-12-19T13:14:47.246Z,7.4
2018-12-19T13:15:48.820Z,7.3
2018-12-19T13:16:50.211Z,7.3
2018-12-19T13:17:51.747Z,7.2
2018-12-19T13:18:53.263Z,7.2
2018-12-19T13:19:54.874Z,7.2
2018-12-19T13:20:56.409Z,7.2
2018-12-19T13:21:57.959Z,7.2
2018-12-19T13:22:59.354Z,7.2
2018-12-19T13:24:00.582Z,7.2
2018-12-19T13:25:01.978Z,7.2
2018-12-19T13:26:03.514Z,7.2
2018-12-19T13:27:04.886Z,7.2
2018-12-19T13:28:06.432Z,7.2
2018-12-19T13:29:07.975Z,7.2
2018-12-19T13:30:09.370Z,7.2
2018-12-19T13:31:10.742Z,7.2
2018-12-19T13:32:12.334Z,7.3
2018-12-19T13:33:13.557Z,7.3
2018-12-19T13:34:14.785Z,7.4
2018-12-19T13:35:16.004Z,7.5
2018-12-19T13:36:17.377Z,7.6
2018-12-19T13:37:18.763Z,7.7
2018-12-19T13:38:20.131Z,7.7
2018-12-19T13:39:21.666Z,7.8
2018-12-19T13:40:23.048Z,7.9
2018-12-19T13:41:24.577Z,7.9
2018-12-19T13:42:25.980Z,7.9
2018-12-19T13:43:27.373Z,7.9
2018-12-19T13:44:28.758Z,7.9
2018-12-19T13:45:30.145Z,7.9
2018-12-19T13:46:31.710Z,7.8
2018-12-19T13:47:33.096Z,7.8
2018-12-19T13:48:34.633Z,7.8
2018-12-19T13:49:35.871Z,7.8
2018-12-19T13:50:37.264Z,7.8
2018-12-19T13:51:38.802Z,7.8
2018-12-19T13:52:40.038Z,7.8
2018-12-19T13:53:41.423Z,7.8
2018-12-19T13:54:43.026Z,7.8
2018-12-19T13:55:44.405Z,7.8
2018-12-19T13:56:45.825Z,7.7
2018-12-19T13:57:47.218Z,7.7
2018-12-19T13:58:48.623Z,7.7
2018-12-19T13:59:50.012Z,7.7
2018-12-19T14:00:51.455Z,7.7
2018-12-19T14:01:52.974Z,7.7
2018-12-19T14:02:54.520Z,7.7
2018-12-19T14:03:56.051Z,7.7
2018-12-19T14:04:57.472Z,7.7
2018-12-19T14:05:59.028Z,7.7
2018-12-19T14:07:00.400Z,7.7
2018-12-19T14:08:01.982Z,7.7